createdAt,value
2017-12-22T00:00:57.374Z,46.5
2017-12-22T00:10:57.378Z,42.3
2017-12-22T00:20:57.751Z,41.8
2017-12-22T00:30:58.043Z,31.2
2017-12-22T00:40:57.238Z,24.0
2017-12-22T00:50:57.336Z,22.7
2017-12-22T01:00:57.028Z,21.0
2017-12-22T01:10:56.722Z,27.5
2017-12-22T01:20:57.488Z,33.0
2017-12-22T01:30:57.366Z,29.5
2017-12-22T01:40:57.568Z,24.7
2017-12-22T01:50:57.808Z,23.9
2017-12-22T02:00:57.612Z,21.5
2017-12-22T02:10:57.295Z,18.4
2017-12-22T02:20:57.384Z,21.2
2017-12-22T02:30:57.302Z,23.4
2017-12-22T02:40:57.502Z,25.4
2017-12-22T02:50:57.240Z,23.3
2017-12-22T03:00:56.909Z,28.2
2017-12-22T03:10:58.020Z,29.4
2017-12-22T03:20:57.293Z,24.8
2017-12-22T03:30:57.871Z,20.9
2017-12-22T03:40:58.324Z,18.4
2017-12-22T03:50:57.103Z,17.3
2017-12-22T04:00:57.069Z,17.5
2017-12-22T04:10:56.791Z,16.9
2017-12-22T04:20:56.791Z,20.6
2017-12-22T04:30:57.526Z,20.9
2017-12-22T04:40:57.426Z,22.2
2017-12-22T04:50:57.215Z,24.4
2017-12-22T05:00:57.364Z,23.4
2017-12-22T05:10:57.129Z,25.3
2017-12-22T05:20:56.984Z,28.1
2017-12-22T05:30:58.489Z,29.8
2017-12-22T05:40:57.616Z,42.3
2017-12-22T05:50:57.284Z,41.9
2017-12-22T06:00:57.106Z,42.5
2017-12-22T06:10:56.969Z,41.8
2017-12-22T06:20:56.901Z,37.5
2017-12-22T06:30:58.037Z,39.6
2017-12-22T06:40:56.749Z,36.8
2017-12-22T06:50:57.910Z,36.0
2017-12-22T07:00:57.739Z,34.4
2017-12-22T07:10:57.403Z,38.4
2017-12-22T07:20:57.604Z,41.4
2017-12-22T07:30:57.320Z,42.4
2017-12-22T07:40:57.266Z,47.8
2017-12-22T07:50:56.988Z,47.0
2017-12-22T08:00:56.657Z,45.2
2017-12-22T08:10:57.342Z,48.6
2017-12-22T08:20:57.421Z,47.7
2017-12-22T08:30:57.645Z,48.3
2017-12-22T08:40:58.052Z,45.4
2017-12-22T08:50:56.770Z,42.9
2017-12-22T09:00:57.506Z,44.1
2017-12-22T09:10:57.669Z,45.5
2017-12-22T09:20:57.499Z,45.8
2017-12-22T09:30:57.757Z,43.5
2017-12-22T09:40:57.822Z,40.7
2017-12-22T09:50:58.453Z,39.7
2017-12-22T10:00:57.124Z,42.7
2017-12-22T10:10:57.024Z,43.1
2017-12-22T10:20:57.239Z,47.5
2017-12-22T10:30:56.957Z,40.1
2017-12-22T10:40:56.716Z,45.9
2017-12-22T10:50:57.545Z,43.5
2017-12-22T11:00:57.176Z,41.4
2017-12-22T11:10:56.877Z,31.3
2017-12-22T11:20:57.154Z,37.8
2017-12-22T11:30:57.058Z,39.4
2017-12-22T11:40:56.895Z,40.1
2017-12-22T11:50:57.622Z,40.2
2017-12-22T12:00:57.498Z,46.8
2017-12-22T12:10:58.812Z,48.3
2017-12-22T12:20:57.760Z,49.1
2017-12-22T12:30:58.336Z,43.2
2017-12-22T12:40:57.165Z,32.2
2017-12-22T12:50:57.113Z,35.5
2017-12-22T13:00:56.845Z,30.5
2017-12-22T13:10:57.879Z,27.7
2017-12-22T13:20:57.235Z,19.9
2017-12-22T13:30:57.165Z,21.6
2017-12-22T13:40:56.967Z,23.0
2017-12-22T13:50:57.312Z,31.4
2017-12-22T14:00:57.175Z,30.0
2017-12-22T14:10:57.222Z,22.1
2017-12-22T14:20:57.490Z,22.7
2017-12-22T14:30:57.734Z,24.3
2017-12-22T14:40:57.662Z,21.5
2017-12-22T14:50:57.882Z,27.4
2017-12-22T15:00:57.546Z,26.0
2017-12-22T15:10:57.266Z,28.0
2017-12-22T15:20:57.651Z,30.2
2017-12-22T15:30:57.403Z,35.5
2017-12-22T15:40:57.110Z,30.2
2017-12-22T15:50:57.057Z,36.0
2017-12-22T16:00:57.130Z,41.1
2017-12-22T16:10:56.809Z,40.2
2017-12-22T16:20:57.561Z,39.9
2017-12-22T16:30:58.037Z,43.0
2017-12-22T16:40:57.493Z,38.2
2017-12-22T16:50:57.434Z,36.4
2017-12-22T17:00:57.374Z,36.5
2017-12-22T17:10:57.100Z,36.0
2017-12-22T17:20:57.222Z,30.3
2017-12-22T17:30:58.102Z,36.1
2017-12-22T17:40:57.105Z,38.4
2017-12-22T17:50:57.205Z,37.9
2017-12-22T18:00:57.357Z,37.4
2017-12-22T18:10:57.058Z,35.2
2017-12-22T18:20:57.124Z,42.1
2017-12-22T18:30:56.821Z,47.5
2017-12-22T18:40:57.567Z,40.2
2017-12-22T18:50:57.887Z,38.0
2017-12-22T19:00:57.989Z,33.8
2017-12-22T19:10:57.564Z,32.7
2017-12-22T19:20:57.548Z,31.1
2017-12-22T19:30:57.908Z,19.3
2017-12-22T19:40:57.827Z,17.1
2017-12-22T19:50:57.583Z,23.2
2017-12-22T20:00:57.436Z,18.6
2017-12-22T20:10:57.165Z,18.5
2017-12-22T20:20:57.653Z,19.2
2017-12-22T20:30:57.482Z,19.6
2017-12-22T20:40:57.647Z,19.6
2017-12-22T20:50:57.380Z,19.7
2017-12-22T21:00:57.100Z,18.6
2017-12-22T21:10:56.869Z,19.4
2017-12-22T21:20:57.634Z,16.7
2017-12-22T21:30:57.623Z,20.9
2017-12-22T21:40:58.018Z,18.0
2017-12-22T21:50:57.365Z,19.4
2017-12-22T22:00:57.241Z,18.2
2017-12-22T22:10:56.964Z,20.0
2017-12-22T22:20:56.813Z,22.4
2017-12-22T22:30:57.704Z,24.6
2017-12-22T22:40:58.187Z,29.7
2017-12-22T22:50:57.551Z,30.0
2017-12-22T23:00:57.254Z,24.9
2017-12-22T23:10:56.922Z,24.9
2017-12-22T23:20:57.006Z,24.8
2017-12-22T23:30:57.152Z,21.4
2017-12-22T23:40:56.906Z,19.4
2017-12-22T23:50:58.090Z,19.6
